sensor_id;sensor_type;location;lat;lon;timestamp;P1;durP1;ratioP1;P2;durP2;ratioP2
66093;SDS011;52876;49.394;10.892;2022-07-30T00:02:03;12.33;;;11.33;;
66093;SDS011;52876;49.394;10.892;2022-07-30T00:04:30;15.93;;;14.57;;
66093;SDS011;52876;49.394;10.892;2022-07-30T00:06:56;14.93;;;13.37;;
66093;SDS011;52876;49.394;10.892;2022-07-30T00:09:22;14.77;;;13.47;;
66093;SDS011;52876;49.394;10.892;2022-07-30T00:11:50;13.83;;;12.60;;
66093;SDS011;52876;49.394;10.892;2022-07-30T00:14:18;12.97;;;11.80;;
66093;SDS011;52876;49.394;10.892;2022-07-30T00:16:45;12.00;;;10.87;;
66093;SDS011;52876;49.394;10.892;2022-07-30T00:19:11;14.60;;;13.30;;
66093;SDS011;52876;49.394;10.892;2022-07-30T00:21:38;13.67;;;12.57;;
66093;SDS011;52876;49.394;10.892;2022-07-30T00:24:05;13.50;;;12.40;;
66093;SDS011;52876;49.394;10.892;2022-07-30T00:26:32;13.60;;;12.40;;
66093;SDS011;52876;49.394;10.892;2022-07-30T00:28:59;13.93;;;12.73;;
66093;SDS011;52876;49.394;10.892;2022-07-30T00:31:26;11.87;;;10.87;;
66093;SDS011;52876;49.394;10.892;2022-07-30T00:33:52;12.67;;;11.57;;
66093;SDS011;52876;49.394;10.892;2022-07-30T00:36:19;12.90;;;11.87;;
66093;SDS011;52876;49.394;10.892;2022-07-30T00:38:45;11.33;;;10.43;;
66093;SDS011;52876;49.394;10.892;2022-07-30T00:41:12;11.73;;;10.83;;
66093;SDS011;52876;49.394;10.892;2022-07-30T00:43:39;15.33;;;14.03;;
66093;SDS011;52876;49.394;10.892;2022-07-30T00:46:05;13.00;;;11.93;;
66093;SDS011;52876;49.394;10.892;2022-07-30T00:48:34;11.47;;;10.57;;
66093;SDS011;52876;49.394;10.892;2022-07-30T00:51:02;13.17;;;11.87;;
66093;SDS011;52876;49.394;10.892;2022-07-30T00:53:28;12.03;;;10.93;;
66093;SDS011;52876;49.394;10.892;2022-07-30T00:55:56;11.53;;;10.63;;
66093;SDS011;52876;49.394;10.892;2022-07-30T00:58:22;10.93;;;9.93;;
66093;SDS011;52876;49.394;10.892;2022-07-30T01:00:50;10.77;;;9.97;;
66093;SDS011;52876;49.394;10.892;2022-07-30T01:03:16;12.40;;;11.40;;
66093;SDS011;52876;49.394;10.892;2022-07-30T01:05:44;13.60;;;12.40;;
66093;SDS011;52876;49.394;10.892;2022-07-30T01:08:10;10.90;;;10.10;;
66093;SDS011;52876;49.394;10.892;2022-07-30T01:10:38;12.03;;;10.93;;
66093;SDS011;52876;49.394;10.892;2022-07-30T01:13:04;12.80;;;11.70;;
66093;SDS011;52876;49.394;10.892;2022-07-30T01:15:31;11.73;;;10.70;;
66093;SDS011;52876;49.394;10.892;2022-07-30T01:17:58;10.97;;;10.07;;
66093;SDS011;52876;49.394;10.892;2022-07-30T01:20:28;13.80;;;12.70;;
66093;SDS011;52876;49.394;10.892;2022-07-30T01:23:00;12.80;;;11.70;;
66093;SDS011;52876;49.394;10.892;2022-07-30T01:25:50;13.10;;;12.00;;
66093;SDS011;52876;49.394;10.892;2022-07-30T01:28:22;13.03;;;11.97;;
66093;SDS011;52876;49.394;10.892;2022-07-30T01:30:51;14.57;;;13.30;;
66093;SDS011;52876;49.394;10.892;2022-07-30T01:33:19;16.90;;;15.40;;
66093;SDS011;52876;49.394;10.892;2022-07-30T01:35:47;12.90;;;11.67;;
66093;SDS011;52876;49.394;10.892;2022-07-30T01:38:16;14.73;;;13.37;;
66093;SDS011;52876;49.394;10.892;2022-07-30T01:40:46;12.23;;;11.33;;
66093;SDS011;52876;49.394;10.892;2022-07-30T01:43:15;13.50;;;12.30;;
66093;SDS011;52876;49.394;10.892;2022-07-30T01:45:43;15.00;;;13.47;;
66093;SDS011;52876;49.394;10.892;2022-07-30T01:48:10;14.20;;;12.13;;
66093;SDS011;52876;49.394;10.892;2022-07-30T01:50:39;15.37;;;14.07;;
66093;SDS011;52876;49.394;10.892;2022-07-30T01:53:08;15.40;;;13.83;;
66093;SDS011;52876;49.394;10.892;2022-07-30T01:55:35;63.73;;;18.90;;
66093;SDS011;52876;49.394;10.892;2022-07-30T01:58:04;37.43;;;14.40;;
66093;SDS011;52876;49.394;10.892;2022-07-30T02:00:35;31.33;;;16.23;;
66093;SDS011;52876;49.394;10.892;2022-07-30T02:03:04;36.63;;;16.13;;
66093;SDS011;52876;49.394;10.892;2022-07-30T02:05:31;23.03;;;18.07;;
66093;SDS011;52876;49.394;10.892;2022-07-30T02:08:00;142.37;;;25.27;;
66093;SDS011;52876;49.394;10.892;2022-07-30T02:10:32;204.93;;;26.43;;
66093;SDS011;52876;49.394;10.892;2022-07-30T02:13:05;28.93;;;19.57;;
66093;SDS011;52876;49.394;10.892;2022-07-30T02:15:37;27.87;;;19.00;;
66093;SDS011;52876;49.394;10.892;2022-07-30T02:18:09;171.73;;;24.20;;
66093;SDS011;52876;49.394;10.892;2022-07-30T02:20:42;70.87;;;23.07;;
66093;SDS011;52876;49.394;10.892;2022-07-30T02:23:10;83.87;;;23.27;;
66093;SDS011;52876;49.394;10.892;2022-07-30T02:25:41;45.67;;;22.77;;
66093;SDS011;52876;49.394;10.892;2022-07-30T02:28:12;69.40;;;22.30;;
66093;SDS011;52876;49.394;10.892;2022-07-30T02:30:43;63.97;;;26.53;;
66093;SDS011;52876;49.394;10.892;2022-07-30T02:33:12;28.57;;;22.67;;
66093;SDS011;52876;49.394;10.892;2022-07-30T02:35:43;58.37;;;25.07;;
66093;SDS011;52876;49.394;10.892;2022-07-30T02:38:09;37.73;;;21.87;;
66093;SDS011;52876;49.394;10.892;2022-07-30T02:40:39;37.17;;;23.97;;
66093;SDS011;52876;49.394;10.892;2022-07-30T02:43:05;25.17;;;22.47;;
66093;SDS011;52876;49.394;10.892;2022-07-30T02:45:33;29.67;;;25.90;;
66093;SDS011;52876;49.394;10.892;2022-07-30T02:48:03;28.00;;;25.10;;
66093;SDS011;52876;49.394;10.892;2022-07-30T02:50:32;29.13;;;25.03;;
66093;SDS011;52876;49.394;10.892;2022-07-30T02:52:59;26.70;;;24.00;;
66093;SDS011;52876;49.394;10.892;2022-07-30T02:55:29;32.33;;;28.83;;
66093;SDS011;52876;49.394;10.892;2022-07-30T02:57:56;27.67;;;24.73;;
66093;SDS011;52876;49.394;10.892;2022-07-30T03:00:25;33.23;;;29.20;;
66093;SDS011;52876;49.394;10.892;2022-07-30T03:02:54;78.60;;;32.30;;
66093;SDS011;52876;49.394;10.892;2022-07-30T03:05:22;175.50;;;36.50;;
66093;SDS011;52876;49.394;10.892;2022-07-30T03:07:49;37.87;;;29.90;;
66093;SDS011;52876;49.394;10.892;2022-07-30T03:10:18;549.53;;;51.17;;
66093;SDS011;52876;49.394;10.892;2022-07-30T03:12:45;84.37;;;34.27;;
66093;SDS011;52876;49.394;10.892;2022-07-30T03:15:14;79.27;;;36.60;;
66093;SDS011;52876;49.394;10.892;2022-07-30T03:17:42;138.30;;;37.80;;
66093;SDS011;52876;49.394;10.892;2022-07-30T03:20:11;90.13;;;35.57;;
66093;SDS011;52876;49.394;10.892;2022-07-30T03:22:43;107.70;;;37.60;;
66093;SDS011;52876;49.394;10.892;2022-07-30T03:25:12;681.07;;;81.40;;
66093;SDS011;52876;49.394;10.892;2022-07-30T03:27:42;83.03;;;40.80;;
66093;SDS011;52876;49.394;10.892;2022-07-30T03:30:09;45.63;;;35.37;;
66093;SDS011;52876;49.394;10.892;2022-07-30T03:32:37;145.83;;;37.80;;
66093;SDS011;52876;49.394;10.892;2022-07-30T03:35:05;256.33;;;46.60;;
66093;SDS011;52876;49.394;10.892;2022-07-30T03:37:34;121.60;;;39.70;;
66093;SDS011;52876;49.394;10.892;2022-07-30T03:40:04;345.10;;;60.77;;
66093;SDS011;52876;49.394;10.892;2022-07-30T03:42:33;155.63;;;43.73;;
66093;SDS011;52876;49.394;10.892;2022-07-30T03:45:00;49.80;;;39.30;;
66093;SDS011;52876;49.394;10.892;2022-07-30T03:47:30;91.53;;;41.73;;
66093;SDS011;52876;49.394;10.892;2022-07-30T03:49:57;56.23;;;37.90;;
66093;SDS011;52876;49.394;10.892;2022-07-30T03:52:25;76.90;;;40.60;;
66093;SDS011;52876;49.394;10.892;2022-07-30T03:54:52;56.00;;;40.73;;
66093;SDS011;52876;49.394;10.892;2022-07-30T03:57:21;67.73;;;41.73;;
66093;SDS011;52876;49.394;10.892;2022-07-30T03:59:47;81.97;;;43.53;;
66093;SDS011;52876;49.394;10.892;2022-07-30T04:02:13;56.87;;;38.30;;
66093;SDS011;52876;49.394;10.892;2022-07-30T04:04:40;52.07;;;40.00;;
66093;SDS011;52876;49.394;10.892;2022-07-30T04:07:08;81.37;;;42.67;;
66093;SDS011;52876;49.394;10.892;2022-07-30T04:09:34;69.70;;;42.00;;
66093;SDS011;52876;49.394;10.892;2022-07-30T04:12:02;70.70;;;39.90;;
66093;SDS011;52876;49.394;10.892;2022-07-30T04:14:34;94.23;;;44.00;;
66093;SDS011;52876;49.394;10.892;2022-07-30T04:17:05;73.93;;;42.43;;
66093;SDS011;52876;49.394;10.892;2022-07-30T04:19:37;92.10;;;44.70;;
66093;SDS011;52876;49.394;10.892;2022-07-30T04:22:07;116.67;;;42.10;;
66093;SDS011;52876;49.394;10.892;2022-07-30T04:24:36;75.53;;;43.30;;
66093;SDS011;52876;49.394;10.892;2022-07-30T04:27:05;52.97;;;40.43;;
66093;SDS011;52876;49.394;10.892;2022-07-30T04:29:31;61.33;;;43.17;;
66093;SDS011;52876;49.394;10.892;2022-07-30T04:31:59;55.10;;;40.70;;
66093;SDS011;52876;49.394;10.892;2022-07-30T04:34:25;67.30;;;46.13;;
66093;SDS011;52876;49.394;10.892;2022-07-30T04:36:52;56.00;;;37.57;;
66093;SDS011;52876;49.394;10.892;2022-07-30T04:39:18;57.07;;;41.97;;
66093;SDS011;52876;49.394;10.892;2022-07-30T04:41:44;48.80;;;37.80;;
66093;SDS011;52876;49.394;10.892;2022-07-30T04:44:11;48.00;;;37.70;;
66093;SDS011;52876;49.394;10.892;2022-07-30T04:46:38;60.97;;;43.50;;
66093;SDS011;52876;49.394;10.892;2022-07-30T04:49:06;42.27;;;34.20;;
66093;SDS011;52876;49.394;10.892;2022-07-30T04:51:33;48.60;;;39.60;;
66093;SDS011;52876;49.394;10.892;2022-07-30T04:54:02;44.27;;;34.93;;
66093;SDS011;52876;49.394;10.892;2022-07-30T04:56:32;46.10;;;37.47;;
66093;SDS011;52876;49.394;10.892;2022-07-30T04:58:59;45.17;;;35.00;;
66093;SDS011;52876;49.394;10.892;2022-07-30T05:01:29;51.17;;;39.00;;
66093;SDS011;52876;49.394;10.892;2022-07-30T05:04:00;46.33;;;35.27;;
66093;SDS011;52876;49.394;10.892;2022-07-30T05:06:29;43.27;;;34.30;;
66093;SDS011;52876;49.394;10.892;2022-07-30T05:08:56;47.33;;;36.50;;
66093;SDS011;52876;49.394;10.892;2022-07-30T05:11:22;53.97;;;40.13;;
66093;SDS011;52876;49.394;10.892;2022-07-30T05:13:48;41.17;;;32.23;;
66093;SDS011;52876;49.394;10.892;2022-07-30T05:16:16;39.47;;;32.43;;
66093;SDS011;52876;49.394;10.892;2022-07-30T05:18:42;41.37;;;32.13;;
66093;SDS011;52876;49.394;10.892;2022-07-30T05:21:09;42.33;;;34.20;;
66093;SDS011;52876;49.394;10.892;2022-07-30T05:23:36;43.37;;;30.20;;
66093;SDS011;52876;49.394;10.892;2022-07-30T05:26:02;38.70;;;30.80;;
66093;SDS011;52876;49.394;10.892;2022-07-30T05:28:28;42.40;;;34.03;;
66093;SDS011;52876;49.394;10.892;2022-07-30T05:30:55;43.60;;;35.40;;
66093;SDS011;52876;49.394;10.892;2022-07-30T05:33:21;41.40;;;31.70;;
66093;SDS011;52876;49.394;10.892;2022-07-30T05:35:49;40.70;;;32.87;;
66093;SDS011;52876;49.394;10.892;2022-07-30T05:38:15;42.70;;;30.17;;
66093;SDS011;52876;49.394;10.892;2022-07-30T05:40:43;42.17;;;32.40;;
66093;SDS011;52876;49.394;10.892;2022-07-30T05:43:09;38.53;;;30.83;;
66093;SDS011;52876;49.394;10.892;2022-07-30T05:45:37;37.30;;;30.30;;
66093;SDS011;52876;49.394;10.892;2022-07-30T05:48:03;39.47;;;32.37;;
66093;SDS011;52876;49.394;10.892;2022-07-30T05:50:30;37.43;;;31.57;;
66093;SDS011;52876;49.394;10.892;2022-07-30T05:52:56;35.63;;;30.03;;
66093;SDS011;52876;49.394;10.892;2022-07-30T05:55:24;36.13;;;32.20;;
66093;SDS011;52876;49.394;10.892;2022-07-30T05:57:52;35.93;;;28.93;;
66093;SDS011;52876;49.394;10.892;2022-07-30T06:00:19;41.50;;;33.60;;
66093;SDS011;52876;49.394;10.892;2022-07-30T06:02:46;35.27;;;29.20;;
66093;SDS011;52876;49.394;10.892;2022-07-30T06:05:13;38.43;;;31.00;;
66093;SDS011;52876;49.394;10.892;2022-07-30T06:07:40;34.93;;;28.83;;
66093;SDS011;52876;49.394;10.892;2022-07-30T06:10:07;33.63;;;29.73;;
66093;SDS011;52876;49.394;10.892;2022-07-30T06:12:35;34.23;;;30.47;;
66093;SDS011;52876;49.394;10.892;2022-07-30T06:15:03;31.20;;;27.53;;
66093;SDS011;52876;49.394;10.892;2022-07-30T06:17:31;35.13;;;29.43;;
66093;SDS011;52876;49.394;10.892;2022-07-30T06:19:58;30.97;;;27.67;;
66093;SDS011;52876;49.394;10.892;2022-07-30T06:22:26;30.67;;;26.37;;
66093;SDS011;52876;49.394;10.892;2022-07-30T06:24:52;30.20;;;27.00;;
66093;SDS011;52876;49.394;10.892;2022-07-30T06:27:20;29.37;;;26.30;;
66093;SDS011;52876;49.394;10.892;2022-07-30T06:29:46;26.40;;;23.60;;
66093;SDS011;52876;49.394;10.892;2022-07-30T06:32:15;24.43;;;21.83;;
66093;SDS011;52876;49.394;10.892;2022-07-30T06:34:42;29.70;;;24.87;;
66093;SDS011;52876;49.394;10.892;2022-07-30T06:37:08;23.87;;;21.47;;
66093;SDS011;52876;49.394;10.892;2022-07-30T06:39:35;23.40;;;20.90;;
66093;SDS011;52876;49.394;10.892;2022-07-30T06:42:02;23.20;;;20.80;;
66093;SDS011;52876;49.394;10.892;2022-07-30T06:44:28;21.73;;;19.40;;
66093;SDS011;52876;49.394;10.892;2022-07-30T06:46:56;18.23;;;16.43;;
66093;SDS011;52876;49.394;10.892;2022-07-30T06:49:26;22.83;;;19.87;;
66093;SDS011;52876;49.394;10.892;2022-07-30T06:51:52;19.23;;;17.40;;
66093;SDS011;52876;49.394;10.892;2022-07-30T06:54:18;19.53;;;17.53;;
66093;SDS011;52876;49.394;10.892;2022-07-30T06:56:45;20.47;;;18.57;;
66093;SDS011;52876;49.394;10.892;2022-07-30T06:59:11;17.27;;;15.47;;
66093;SDS011;52876;49.394;10.892;2022-07-30T07:01:39;19.73;;;17.80;;
66093;SDS011;52876;49.394;10.892;2022-07-30T07:04:05;19.23;;;17.33;;
66093;SDS011;52876;49.394;10.892;2022-07-30T07:06:34;22.53;;;20.20;;
66093;SDS011;52876;49.394;10.892;2022-07-30T07:09:00;20.20;;;18.40;;
66093;SDS011;52876;49.394;10.892;2022-07-30T07:11:29;22.30;;;20.10;;
66093;SDS011;52876;49.394;10.892;2022-07-30T07:13:55;18.90;;;16.97;;
66093;SDS011;52876;49.394;10.892;2022-07-30T07:16:23;20.17;;;18.30;;
66093;SDS011;52876;49.394;10.892;2022-07-30T07:18:49;19.90;;;17.97;;
66093;SDS011;52876;49.394;10.892;2022-07-30T07:21:17;18.10;;;16.50;;
66093;SDS011;52876;49.394;10.892;2022-07-30T07:23:44;20.13;;;18.13;;
66093;SDS011;52876;49.394;10.892;2022-07-30T07:26:11;17.70;;;16.00;;
66093;SDS011;52876;49.394;10.892;2022-07-30T07:28:37;23.73;;;21.40;;
66093;SDS011;52876;49.394;10.892;2022-07-30T07:31:04;21.20;;;19.20;;
66093;SDS011;52876;49.394;10.892;2022-07-30T07:33:30;19.97;;;17.97;;
66093;SDS011;52876;49.394;10.892;2022-07-30T07:35:58;16.90;;;15.40;;
66093;SDS011;52876;49.394;10.892;2022-07-30T07:38:24;19.30;;;17.60;;
66093;SDS011;52876;49.394;10.892;2022-07-30T07:40:52;16.53;;;15.00;;
66093;SDS011;52876;49.394;10.892;2022-07-30T07:43:18;17.20;;;15.60;;
66093;SDS011;52876;49.394;10.892;2022-07-30T07:45:44;17.90;;;16.23;;
66093;SDS011;52876;49.394;10.892;2022-07-30T07:48:11;17.10;;;15.50;;
66093;SDS011;52876;49.394;10.892;2022-07-30T07:50:38;16.03;;;14.63;;
66093;SDS011;52876;49.394;10.892;2022-07-30T07:53:05;12.40;;;11.20;;
66093;SDS011;52876;49.394;10.892;2022-07-30T07:55:33;17.53;;;15.60;;
66093;SDS011;52876;49.394;10.892;2022-07-30T07:58:00;16.60;;;14.90;;
66093;SDS011;52876;49.394;10.892;2022-07-30T08:00:27;15.80;;;14.30;;
66093;SDS011;52876;49.394;10.892;2022-07-30T08:02:54;14.90;;;13.50;;
66093;SDS011;52876;49.394;10.892;2022-07-30T08:05:21;14.13;;;12.83;;
66093;SDS011;52876;49.394;10.892;2022-07-30T08:07:49;13.80;;;12.53;;
66093;SDS011;52876;49.394;10.892;2022-07-30T08:10:15;14.07;;;12.77;;
66093;SDS011;52876;49.394;10.892;2022-07-30T08:12:43;15.20;;;13.77;;
66093;SDS011;52876;49.394;10.892;2022-07-30T08:15:11;13.83;;;12.63;;
66093;SDS011;52876;49.394;10.892;2022-07-30T08:17:39;11.77;;;10.67;;
66093;SDS011;52876;49.394;10.892;2022-07-30T08:20:05;13.40;;;11.90;;
66093;SDS011;52876;49.394;10.892;2022-07-30T08:22:34;14.57;;;12.60;;
66093;SDS011;52876;49.394;10.892;2022-07-30T08:25:00;16.00;;;14.00;;
66093;SDS011;52876;49.394;10.892;2022-07-30T08:27:28;13.40;;;12.10;;
66093;SDS011;52876;49.394;10.892;2022-07-30T08:29:55;11.97;;;10.80;;
66093;SDS011;52876;49.394;10.892;2022-07-30T08:32:24;14.37;;;12.97;;
66093;SDS011;52876;49.394;10.892;2022-07-30T08:34:50;12.13;;;11.03;;
66093;SDS011;52876;49.394;10.892;2022-07-30T08:37:18;14.33;;;12.93;;
66093;SDS011;52876;49.394;10.892;2022-07-30T08:39:45;14.40;;;12.90;;
66093;SDS011;52876;49.394;10.892;2022-07-30T08:42:12;16.00;;;13.80;;
66093;SDS011;52876;49.394;10.892;2022-07-30T08:44:38;11.70;;;10.70;;
66093;SDS011;52876;49.394;10.892;2022-07-30T08:47:06;13.53;;;12.13;;
66093;SDS011;52876;49.394;10.892;2022-07-30T08:49:37;11.97;;;10.97;;
66093;SDS011;52876;49.394;10.892;2022-07-30T08:52:05;13.67;;;12.27;;
66093;SDS011;52876;49.394;10.892;2022-07-30T08:54:32;17.00;;;15.00;;
66093;SDS011;52876;49.394;10.892;2022-07-30T08:56:58;14.07;;;11.90;;
66093;SDS011;52876;49.394;10.892;2022-07-30T08:59:25;13.17;;;10.80;;
66093;SDS011;52876;49.394;10.892;2022-07-30T09:01:53;9.13;;;8.27;;
66093;SDS011;52876;49.394;10.892;2022-07-30T09:04:20;7.00;;;6.40;;
66093;SDS011;52876;49.394;10.892;2022-07-30T09:06:49;7.10;;;6.53;;
66093;SDS011;52876;49.394;10.892;2022-07-30T09:09:16;6.13;;;5.73;;
66093;SDS011;52876;49.394;10.892;2022-07-30T09:11:44;4.33;;;3.80;;
66093;SDS011;52876;49.394;10.892;2022-07-30T09:14:11;5.50;;;5.20;;
66093;SDS011;52876;49.394;10.892;2022-07-30T09:16:38;8.07;;;7.23;;
66093;SDS011;52876;49.394;10.892;2022-07-30T09:19:10;7.60;;;6.37;;
66093;SDS011;52876;49.394;10.892;2022-07-30T09:21:39;5.90;;;5.40;;
66093;SDS011;52876;49.394;10.892;2022-07-30T09:24:08;6.47;;;6.00;;
66093;SDS011;52876;49.394;10.892;2022-07-30T09:29:25;6.37;;;5.97;;
66093;SDS011;52876;49.394;10.892;2022-07-30T09:31:54;6.87;;;6.37;;
66093;SDS011;52876;49.394;10.892;2022-07-30T09:34:22;7.33;;;6.73;;
66093;SDS011;52876;49.394;10.892;2022-07-30T09:36:49;7.37;;;6.77;;
66093;SDS011;52876;49.394;10.892;2022-07-30T09:39:28;6.17;;;5.67;;
66093;SDS011;52876;49.394;10.892;2022-07-30T09:41:59;5.73;;;5.33;;
66093;SDS011;52876;49.394;10.892;2022-07-30T09:44:27;6.17;;;5.70;;
66093;SDS011;52876;49.394;10.892;2022-07-30T09:46:54;4.83;;;4.53;;
66093;SDS011;52876;49.394;10.892;2022-07-30T09:49:22;5.60;;;5.20;;
66093;SDS011;52876;49.394;10.892;2022-07-30T09:51:50;9.83;;;7.07;;
66093;SDS011;52876;49.394;10.892;2022-07-30T09:54:18;6.10;;;5.30;;
66093;SDS011;52876;49.394;10.892;2022-07-30T09:56:51;10.30;;;7.20;;
66093;SDS011;52876;49.394;10.892;2022-07-30T09:59:30;7.43;;;6.83;;
66093;SDS011;52876;49.394;10.892;2022-07-30T10:01:58;6.40;;;5.90;;
66093;SDS011;52876;49.394;10.892;2022-07-30T10:04:25;7.97;;;7.30;;
66093;SDS011;52876;49.394;10.892;2022-07-30T10:06:53;6.37;;;5.87;;
66093;SDS011;52876;49.394;10.892;2022-07-30T10:09:26;6.67;;;6.17;;
66093;SDS011;52876;49.394;10.892;2022-07-30T10:11:56;6.00;;;5.40;;
66093;SDS011;52876;49.394;10.892;2022-07-30T10:14:25;6.57;;;6.07;;
66093;SDS011;52876;49.394;10.892;2022-07-30T10:16:54;6.20;;;5.80;;
66093;SDS011;52876;49.394;10.892;2022-07-30T10:19:21;5.20;;;4.80;;
66093;SDS011;52876;49.394;10.892;2022-07-30T10:21:49;6.30;;;5.80;;
66093;SDS011;52876;49.394;10.892;2022-07-30T10:24:16;6.40;;;5.90;;
66093;SDS011;52876;49.394;10.892;2022-07-30T10:26:42;5.83;;;5.40;;
66093;SDS011;52876;49.394;10.892;2022-07-30T10:29:10;6.50;;;5.90;;
66093;SDS011;52876;49.394;10.892;2022-07-30T10:31:36;5.93;;;5.50;;
66093;SDS011;52876;49.394;10.892;2022-07-30T10:34:03;5.70;;;5.20;;
66093;SDS011;52876;49.394;10.892;2022-07-30T10:36:30;6.53;;;6.03;;
66093;SDS011;52876;49.394;10.892;2022-07-30T10:38:58;5.33;;;4.93;;
66093;SDS011;52876;49.394;10.892;2022-07-30T10:41:30;5.93;;;5.40;;
66093;SDS011;52876;49.394;10.892;2022-07-30T10:44:11;5.50;;;5.10;;
66093;SDS011;52876;49.394;10.892;2022-07-30T10:47:09;4.50;;;4.27;;
66093;SDS011;52876;49.394;10.892;2022-07-30T10:49:38;6.13;;;5.63;;
66093;SDS011;52876;49.394;10.892;2022-07-30T10:52:05;5.33;;;5.03;;
66093;SDS011;52876;49.394;10.892;2022-07-30T10:54:39;6.73;;;6.30;;
66093;SDS011;52876;49.394;10.892;2022-07-30T10:57:09;5.57;;;5.07;;
66093;SDS011;52876;49.394;10.892;2022-07-30T11:02:41;7.00;;;6.50;;
66093;SDS011;52876;49.394;10.892;2022-07-30T11:05:36;8.13;;;7.40;;
66093;SDS011;52876;49.394;10.892;2022-07-30T11:10:54;7.20;;;6.63;;
66093;SDS011;52876;49.394;10.892;2022-07-30T11:16:18;7.80;;;7.10;;
66093;SDS011;52876;49.394;10.892;2022-07-30T11:19:01;8.30;;;7.70;;
66093;SDS011;52876;49.394;10.892;2022-07-30T11:21:32;9.20;;;8.30;;
66093;SDS011;52876;49.394;10.892;2022-07-30T11:23:58;6.70;;;6.20;;
66093;SDS011;52876;49.394;10.892;2022-07-30T11:29:33;7.57;;;7.03;;
66093;SDS011;52876;49.394;10.892;2022-07-30T11:34:52;8.97;;;8.23;;
66093;SDS011;52876;49.394;10.892;2022-07-30T11:37:57;7.60;;;7.10;;
66093;SDS011;52876;49.394;10.892;2022-07-30T11:40:28;10.33;;;7.20;;
66093;SDS011;52876;49.394;10.892;2022-07-30T11:43:14;6.60;;;6.10;;
66093;SDS011;52876;49.394;10.892;2022-07-30T11:45:47;8.07;;;7.50;;
66093;SDS011;52876;49.394;10.892;2022-07-30T11:48:17;8.93;;;6.50;;
66093;SDS011;52876;49.394;10.892;2022-07-30T11:50:44;7.60;;;6.90;;
66093;SDS011;52876;49.394;10.892;2022-07-30T11:53:13;6.83;;;6.33;;
66093;SDS011;52876;49.394;10.892;2022-07-30T11:55:43;9.90;;;8.13;;
66093;SDS011;52876;49.394;10.892;2022-07-30T11:58:21;6.63;;;5.90;;
66093;SDS011;52876;49.394;10.892;2022-07-30T12:00:50;7.27;;;6.00;;
66093;SDS011;52876;49.394;10.892;2022-07-30T12:03:18;5.53;;;5.03;;
66093;SDS011;52876;49.394;10.892;2022-07-30T12:05:47;6.17;;;5.60;;
66093;SDS011;52876;49.394;10.892;2022-07-30T12:08:14;3.90;;;3.60;;
66093;SDS011;52876;49.394;10.892;2022-07-30T12:10:42;5.77;;;5.27;;
66093;SDS011;52876;49.394;10.892;2022-07-30T12:13:18;6.20;;;5.40;;
66093;SDS011;52876;49.394;10.892;2022-07-30T12:15:45;6.20;;;5.60;;
66093;SDS011;52876;49.394;10.892;2022-07-30T12:18:12;6.10;;;5.60;;
66093;SDS011;52876;49.394;10.892;2022-07-30T12:20:41;6.50;;;5.90;;
66093;SDS011;52876;49.394;10.892;2022-07-30T12:23:10;6.53;;;5.93;;
66093;SDS011;52876;49.394;10.892;2022-07-30T12:25:38;6.97;;;4.80;;
66093;SDS011;52876;49.394;10.892;2022-07-30T12:28:04;5.30;;;4.80;;
66093;SDS011;52876;49.394;10.892;2022-07-30T12:30:32;5.37;;;4.93;;
66093;SDS011;52876;49.394;10.892;2022-07-30T12:32:58;4.80;;;4.40;;
66093;SDS011;52876;49.394;10.892;2022-07-30T12:38:10;4.50;;;4.20;;
66093;SDS011;52876;49.394;10.892;2022-07-30T12:40:54;5.10;;;4.80;;
66093;SDS011;52876;49.394;10.892;2022-07-30T12:43:41;7.40;;;6.80;;
66093;SDS011;52876;49.394;10.892;2022-07-30T12:46:09;3.70;;;3.40;;
66093;SDS011;52876;49.394;10.892;2022-07-30T12:48:36;4.30;;;3.90;;
66093;SDS011;52876;49.394;10.892;2022-07-30T12:51:05;5.00;;;4.03;;
66093;SDS011;52876;49.394;10.892;2022-07-30T12:53:31;6.03;;;5.63;;
66093;SDS011;52876;49.394;10.892;2022-07-30T12:56:08;7.00;;;4.23;;
66093;SDS011;52876;49.394;10.892;2022-07-30T12:58:35;8.77;;;5.77;;
66093;SDS011;52876;49.394;10.892;2022-07-30T13:01:01;4.83;;;4.23;;
66093;SDS011;52876;49.394;10.892;2022-07-30T13:03:28;5.53;;;5.13;;
66093;SDS011;52876;49.394;10.892;2022-07-30T13:05:54;8.33;;;5.93;;
66093;SDS011;52876;49.394;10.892;2022-07-30T13:11:19;4.97;;;4.60;;
66093;SDS011;52876;49.394;10.892;2022-07-30T13:13:46;5.97;;;5.47;;
66093;SDS011;52876;49.394;10.892;2022-07-30T13:16:12;5.10;;;4.80;;
66093;SDS011;52876;49.394;10.892;2022-07-30T13:18:39;5.57;;;5.07;;
66093;SDS011;52876;49.394;10.892;2022-07-30T13:21:06;4.87;;;4.57;;
66093;SDS011;52876;49.394;10.892;2022-07-30T13:23:32;6.93;;;6.33;;
66093;SDS011;52876;49.394;10.892;2022-07-30T13:26:00;4.87;;;4.50;;
66093;SDS011;52876;49.394;10.892;2022-07-30T13:28:26;6.63;;;5.80;;
66093;SDS011;52876;49.394;10.892;2022-07-30T13:30:52;5.43;;;4.93;;
66093;SDS011;52876;49.394;10.892;2022-07-30T13:33:19;4.67;;;4.37;;
66093;SDS011;52876;49.394;10.892;2022-07-30T13:35:46;6.10;;;5.70;;
66093;SDS011;52876;49.394;10.892;2022-07-30T13:38:13;4.37;;;4.03;;
66093;SDS011;52876;49.394;10.892;2022-07-30T13:40:41;5.53;;;5.13;;
66093;SDS011;52876;49.394;10.892;2022-07-30T13:43:08;11.23;;;5.03;;
66093;SDS011;52876;49.394;10.892;2022-07-30T13:45:34;10.47;;;6.97;;
66093;SDS011;52876;49.394;10.892;2022-07-30T13:48:01;5.83;;;5.30;;
66093;SDS011;52876;49.394;10.892;2022-07-30T13:50:28;7.50;;;6.90;;
66093;SDS011;52876;49.394;10.892;2022-07-30T13:52:55;7.03;;;6.40;;
66093;SDS011;52876;49.394;10.892;2022-07-30T13:55:22;8.70;;;7.70;;
66093;SDS011;52876;49.394;10.892;2022-07-30T13:57:50;6.13;;;5.70;;
66093;SDS011;52876;49.394;10.892;2022-07-30T14:00:17;15.20;;;8.40;;
66093;SDS011;52876;49.394;10.892;2022-07-30T14:02:45;7.33;;;6.70;;
66093;SDS011;52876;49.394;10.892;2022-07-30T14:05:11;8.13;;;5.80;;
66093;SDS011;52876;49.394;10.892;2022-07-30T14:07:39;6.07;;;5.47;;
66093;SDS011;52876;49.394;10.892;2022-07-30T14:10:05;8.10;;;6.27;;
66093;SDS011;52876;49.394;10.892;2022-07-30T14:12:33;9.17;;;8.27;;
66093;SDS011;52876;49.394;10.892;2022-07-30T14:15:00;7.63;;;6.67;;
66093;SDS011;52876;49.394;10.892;2022-07-30T14:17:29;16.10;;;10.43;;
66093;SDS011;52876;49.394;10.892;2022-07-30T14:19:55;7.47;;;6.73;;
66093;SDS011;52876;49.394;10.892;2022-07-30T14:22:23;6.67;;;5.53;;
66093;SDS011;52876;49.394;10.892;2022-07-30T14:24:49;7.00;;;6.27;;
66093;SDS011;52876;49.394;10.892;2022-07-30T14:27:16;6.07;;;5.67;;
66093;SDS011;52876;49.394;10.892;2022-07-30T14:29:42;6.47;;;5.47;;
66093;SDS011;52876;49.394;10.892;2022-07-30T14:32:09;6.13;;;5.50;;
66093;SDS011;52876;49.394;10.892;2022-07-30T14:34:36;8.67;;;7.00;;
66093;SDS011;52876;49.394;10.892;2022-07-30T14:37:02;8.00;;;5.63;;
66093;SDS011;52876;49.394;10.892;2022-07-30T14:39:29;6.90;;;6.40;;
66093;SDS011;52876;49.394;10.892;2022-07-30T14:41:56;6.17;;;5.47;;
66093;SDS011;52876;49.394;10.892;2022-07-30T14:44:22;6.53;;;6.13;;
66093;SDS011;52876;49.394;10.892;2022-07-30T14:46:49;5.50;;;5.00;;
66093;SDS011;52876;49.394;10.892;2022-07-30T14:49:15;5.30;;;4.90;;